sensor_id;sensor_type;location;lat;lon;timestamp;pressure;altitude;pressure_sealevel;temperature
70123;BMP280;57489;37.404;24.920;2023-08-24T00:04:28;99845.50;;;27.12
70123;BMP280;57489;37.404;24.920;2023-08-24T00:09:28;99852.53;;;27.55
70123;BMP280;57489;37.404;24.920;2023-08-24T00:14:29;99855.47;;;27.04
70123;BMP280;57489;37.404;24.920;2023-08-24T00:19:29;99846.13;;;26.76
70123;BMP280;57489;37.404;24.920;2023-08-24T00:24:30;99841.78;;;27.59
70123;BMP280;57489;37.404;24.920;2023-08-24T00:29:30;99846.28;;;27.23
70123;BMP280;57489;37.404;24.920;2023-08-24T00:34:31;99846.03;;;26.62
70123;BMP280;57489;37.404;24.920;2023-08-24T00:39:31;99835.56;;;27.41
70123;BMP280;57489;37.404;24.920;2023-08-24T00:44:32;99843.97;;;27.21
70123;BMP280;57489;37.404;24.920;2023-08-24T00:49:32;99836.81;;;26.63
70123;BMP280;57489;37.404;24.920;2023-08-24T00:54:33;99829.34;;;27.29
70123;BMP280;57489;37.404;24.920;2023-08-24T00:59:34;99827.47;;;27.33
70123;BMP280;57489;37.404;24.920;2023-08-24T01:04:34;99832.66;;;26.76
70123;BMP280;57489;37.404;24.920;2023-08-24T01:09:35;99832.44;;;27.24
70123;BMP280;57489;37.404;24.920;2023-08-24T01:19:43;99826.09;;;26.77
70123;BMP280;57489;37.404;24.920;2023-08-24T01:24:47;99811.63;;;27.11
70123;BMP280;57489;37.404;24.920;2023-08-24T01:29:53;99818.63;;;27.44
70123;BMP280;57489;37.404;24.920;2023-08-24T01:34:54;99820.03;;;26.91
70123;BMP280;57489;37.404;24.920;2023-08-24T01:40:02;99823.91;;;27.01
70123;BMP280;57489;37.404;24.920;2023-08-24T01:45:05;99816.34;;;27.49
70123;BMP280;57489;37.404;24.920;2023-08-24T01:50:06;99823.47;;;26.95
70123;BMP280;57489;37.404;24.920;2023-08-24T01:55:07;99812.75;;;26.99
70123;BMP280;57489;37.404;24.920;2023-08-24T02:00:08;99806.72;;;27.45
70123;BMP280;57489;37.404;24.920;2023-08-24T02:05:09;99816.53;;;26.87
70123;BMP280;57489;37.404;24.920;2023-08-24T02:10:09;99810.09;;;27.13
70123;BMP280;57489;37.404;24.920;2023-08-24T02:15:10;99807.44;;;27.31
70123;BMP280;57489;37.404;24.920;2023-08-24T02:20:11;99816.81;;;26.71
70123;BMP280;57489;37.404;24.920;2023-08-24T02:25:11;99810.94;;;27.46
70123;BMP280;57489;37.404;24.920;2023-08-24T02:30:12;99835.09;;;27.17
70123;BMP280;57489;37.404;24.920;2023-08-24T02:35:13;99829.13;;;26.65
70123;BMP280;57489;37.404;24.920;2023-08-24T02:40:13;99820.19;;;27.52
70123;BMP280;57489;37.404;24.920;2023-08-24T02:45:14;99825.47;;;27.05
70123;BMP280;57489;37.404;24.920;2023-08-24T02:50:14;99829.97;;;26.84
70123;BMP280;57489;37.404;24.920;2023-08-24T02:55:15;99827.06;;;27.39
70123;BMP280;57489;37.404;24.920;2023-08-24T03:00:15;99830.75;;;26.77
70123;BMP280;57489;37.404;24.920;2023-08-24T03:05:16;99824.03;;;27.44
70123;BMP280;57489;37.404;24.920;2023-08-24T03:10:16;99829.69;;;27.06
70123;BMP280;57489;37.404;24.920;2023-08-24T03:15:17;99837.63;;;26.67
70123;BMP280;57489;37.404;24.920;2023-08-24T03:20:18;99829.38;;;27.36
70123;BMP280;57489;37.404;24.920;2023-08-24T03:25:19;99847.56;;;26.63
70123;BMP280;57489;37.404;24.920;2023-08-24T03:30:19;99831.34;;;27.40
70123;BMP280;57489;37.404;24.920;2023-08-24T03:35:20;99835.84;;;27.00
70123;BMP280;57489;37.404;24.920;2023-08-24T03:40:20;99836.47;;;26.75
70123;BMP280;57489;37.404;24.920;2023-08-24T03:45:21;99830.91;;;27.23
70123;BMP280;57489;37.404;24.920;2023-08-24T03:50:22;99831.31;;;26.49
70123;BMP280;57489;37.404;24.920;2023-08-24T03:55:23;99827.06;;;27.39
70123;BMP280;57489;37.404;24.920;2023-08-24T04:00:23;99829.94;;;26.69
70123;BMP280;57489;37.404;24.920;2023-08-24T04:05:23;99832.50;;;27.53
70123;BMP280;57489;37.404;24.920;2023-08-24T04:10:24;99842.34;;;26.92
70123;BMP280;57489;37.404;24.920;2023-08-24T04:15:24;99835.53;;;27.16
70123;BMP280;57489;37.404;24.920;2023-08-24T04:20:25;99850.53;;;27.24
70123;BMP280;57489;37.404;24.920;2023-08-24T04:25:25;99854.47;;;26.64
70123;BMP280;57489;37.404;24.920;2023-08-24T04:30:26;99850.59;;;27.56
70123;BMP280;57489;37.404;24.920;2023-08-24T04:35:26;99855.41;;;26.86
70123;BMP280;57489;37.404;24.920;2023-08-24T04:40:26;99855.97;;;27.38
70123;BMP280;57489;37.404;24.920;2023-08-24T04:45:27;99854.81;;;27.43
70123;BMP280;57489;37.404;24.920;2023-08-24T04:50:27;99862.63;;;26.78
70123;BMP280;57489;37.404;24.920;2023-08-24T04:55:28;99864.09;;;27.56
70123;BMP280;57489;37.404;24.920;2023-08-24T05:00:28;99865.25;;;27.55
70123;BMP280;57489;37.404;24.920;2023-08-24T05:05:29;99866.97;;;26.97
70123;BMP280;57489;37.404;24.920;2023-08-24T05:10:31;99862.84;;;27.18
70123;BMP280;57489;37.404;24.920;2023-08-24T05:15:31;99867.97;;;27.73
70123;BMP280;57489;37.404;24.920;2023-08-24T05:20:32;99863.72;;;27.57
70123;BMP280;57489;37.404;24.920;2023-08-24T05:25:32;99869.78;;;27.19
70123;BMP280;57489;37.404;24.920;2023-08-24T05:30:33;99867.00;;;27.01
70123;BMP280;57489;37.404;24.920;2023-08-24T05:35:33;99856.75;;;27.46
70123;BMP280;57489;37.404;24.920;2023-08-24T05:40:34;99874.81;;;27.31
70123;BMP280;57489;37.404;24.920;2023-08-24T05:45:35;99864.69;;;26.99
70123;BMP280;57489;37.404;24.920;2023-08-24T05:50:35;99879.94;;;26.77
70123;BMP280;57489;37.404;24.920;2023-08-24T05:55:36;99878.44;;;26.84
70123;BMP280;57489;37.404;24.920;2023-08-24T06:00:36;99883.09;;;26.87
70123;BMP280;57489;37.404;24.920;2023-08-24T06:05:37;99883.84;;;26.84
70123;BMP280;57489;37.404;24.920;2023-08-24T06:10:37;99895.03;;;26.93
70123;BMP280;57489;37.404;24.920;2023-08-24T06:15:37;99886.59;;;26.98
70123;BMP280;57489;37.404;24.920;2023-08-24T06:20:38;99897.41;;;27.01
70123;BMP280;57489;37.404;24.920;2023-08-24T06:25:38;99895.56;;;27.16
70123;BMP280;57489;37.404;24.920;2023-08-24T06:30:42;99904.38;;;27.17
70123;BMP280;57489;37.404;24.920;2023-08-24T06:35:43;99921.78;;;27.30
70123;BMP280;57489;37.404;24.920;2023-08-24T06:40:43;99919.47;;;27.32
70123;BMP280;57489;37.404;24.920;2023-08-24T06:45:44;99918.75;;;27.46
70123;BMP280;57489;37.404;24.920;2023-08-24T06:50:44;99921.81;;;27.51
70123;BMP280;57489;37.404;24.920;2023-08-24T06:55:45;99932.66;;;27.62
70123;BMP280;57489;37.404;24.920;2023-08-24T07:00:45;99934.22;;;27.59
70123;BMP280;57489;37.404;24.920;2023-08-24T07:05:46;99931.91;;;27.65
70123;BMP280;57489;37.404;24.920;2023-08-24T07:10:46;99924.63;;;27.76
70123;BMP280;57489;37.404;24.920;2023-08-24T07:15:47;99932.31;;;27.74
70123;BMP280;57489;37.404;24.920;2023-08-24T07:20:47;99929.22;;;27.72
70123;BMP280;57489;37.404;24.920;2023-08-24T07:25:48;99935.03;;;27.85
70123;BMP280;57489;37.404;24.920;2023-08-24T07:30:48;99937.75;;;27.92
70123;BMP280;57489;37.404;24.920;2023-08-24T07:35:48;99946.59;;;27.85
70123;BMP280;57489;37.404;24.920;2023-08-24T07:40:49;99941.22;;;28.00
70123;BMP280;57489;37.404;24.920;2023-08-24T07:45:50;99941.63;;;27.98
70123;BMP280;57489;37.404;24.920;2023-08-24T07:50:50;99953.19;;;28.06
70123;BMP280;57489;37.404;24.920;2023-08-24T07:55:53;99958.19;;;28.11
70123;BMP280;57489;37.404;24.920;2023-08-24T08:00:55;99952.00;;;28.14
70123;BMP280;57489;37.404;24.920;2023-08-24T08:05:55;99941.25;;;28.28
70123;BMP280;57489;37.404;24.920;2023-08-24T08:11:00;99941.22;;;28.21
70123;BMP280;57489;37.404;24.920;2023-08-24T08:16:05;99933.53;;;28.23
70123;BMP280;57489;37.404;24.920;2023-08-24T08:21:16;99932.75;;;28.47
70123;BMP280;57489;37.404;24.920;2023-08-24T08:26:17;99937.00;;;28.48
70123;BMP280;57489;37.404;24.920;2023-08-24T08:31:17;99942.00;;;28.46
70123;BMP280;57489;37.404;24.920;2023-08-24T08:36:18;99939.69;;;28.48
70123;BMP280;57489;37.404;24.920;2023-08-24T08:41:22;99935.06;;;28.52
70123;BMP280;57489;37.404;24.920;2023-08-24T08:46:22;99943.53;;;28.65
70123;BMP280;57489;37.404;24.920;2023-08-24T08:51:23;99932.72;;;28.55
70123;BMP280;57489;37.404;24.920;2023-08-24T08:56:24;99935.03;;;28.63
70123;BMP280;57489;37.404;24.920;2023-08-24T09:01:25;99927.72;;;30.51
70123;BMP280;57489;37.404;24.920;2023-08-24T09:06:25;99931.94;;;30.94
70123;BMP280;57489;37.404;24.920;2023-08-24T09:11:26;99935.38;;;31.25
70123;BMP280;57489;37.404;24.920;2023-08-24T09:16:29;99936.06;;;31.32
70123;BMP280;57489;37.404;24.920;2023-08-24T09:21:30;99923.09;;;31.43
70123;BMP280;57489;37.404;24.920;2023-08-24T09:26:31;99929.50;;;31.57
70123;BMP280;57489;37.404;24.920;2023-08-24T09:31:36;99926.97;;;31.69
70123;BMP280;57489;37.404;24.920;2023-08-24T09:36:37;99924.44;;;31.82
70123;BMP280;57489;37.404;24.920;2023-08-24T09:41:43;99930.94;;;31.88
70123;BMP280;57489;37.404;24.920;2023-08-24T09:46:43;99931.19;;;31.97
70123;BMP280;57489;37.404;24.920;2023-08-24T09:51:44;99926.47;;;32.01
70123;BMP280;57489;37.404;24.920;2023-08-24T09:56:46;99922.22;;;32.00
70123;BMP280;57489;37.404;24.920;2023-08-24T10:01:49;99923.25;;;32.06
70123;BMP280;57489;37.404;24.920;2023-08-24T10:07:04;99920.84;;;32.12
70123;BMP280;57489;37.404;24.920;2023-08-24T10:12:07;99918.47;;;32.14
70123;BMP280;57489;37.404;24.920;2023-08-24T10:17:09;99919.59;;;32.17
70123;BMP280;57489;37.404;24.920;2023-08-24T10:22:10;99923.84;;;32.18
70123;BMP280;57489;37.404;24.920;2023-08-24T10:27:11;99916.81;;;32.20
70123;BMP280;57489;37.404;24.920;2023-08-24T10:32:13;99922.59;;;32.22
70123;BMP280;57489;37.404;24.920;2023-08-24T10:37:14;99920.59;;;32.26
70123;BMP280;57489;37.404;24.920;2023-08-24T10:42:14;99917.78;;;32.30
70123;BMP280;57489;37.404;24.920;2023-08-24T10:47:19;99913.91;;;32.31
70123;BMP280;57489;37.404;24.920;2023-08-24T10:52:32;99914.09;;;32.40
70123;BMP280;57489;37.404;24.920;2023-08-24T10:57:38;99911.75;;;32.42
70123;BMP280;57489;37.404;24.920;2023-08-24T11:02:45;99915.53;;;32.48
70123;BMP280;57489;37.404;24.920;2023-08-24T11:18:13;99900.66;;;32.53
70123;BMP280;57489;37.404;24.920;2023-08-24T11:23:17;99898.63;;;32.77
70123;BMP280;57489;37.404;24.920;2023-08-24T11:28:20;99895.19;;;32.92
70123;BMP280;57489;37.404;24.920;2023-08-24T11:33:33;99895.94;;;32.93
70123;BMP280;57489;37.404;24.920;2023-08-24T11:38:41;99900.19;;;32.94
70123;BMP280;57489;37.404;24.920;2023-08-24T11:43:46;99901.78;;;32.91
70123;BMP280;57489;37.404;24.920;2023-08-24T11:48:46;99887.31;;;32.98
70123;BMP280;57489;37.404;24.920;2023-08-24T11:53:47;99883.38;;;32.99
70123;BMP280;57489;37.404;24.920;2023-08-24T11:58:49;99884.69;;;33.11
70123;BMP280;57489;37.404;24.920;2023-08-24T12:03:50;99885.59;;;33.04
70123;BMP280;57489;37.404;24.920;2023-08-24T12:08:50;99876.00;;;33.16
70123;BMP280;57489;37.404;24.920;2023-08-24T12:13:53;99881.50;;;32.96
70123;BMP280;57489;37.404;24.920;2023-08-24T12:18:56;99880.13;;;32.88
70123;BMP280;57489;37.404;24.920;2023-08-24T12:24:04;99876.38;;;32.82
70123;BMP280;57489;37.404;24.920;2023-08-24T12:29:08;99865.81;;;32.67
70123;BMP280;57489;37.404;24.920;2023-08-24T12:34:08;99875.56;;;33.17
70123;BMP280;57489;37.404;24.920;2023-08-24T12:39:11;99871.41;;;33.45
70123;BMP280;57489;37.404;24.920;2023-08-24T12:44:12;99872.69;;;33.41
70123;BMP280;57489;37.404;24.920;2023-08-24T12:49:12;99870.81;;;33.37
70123;BMP280;57489;37.404;24.920;2023-08-24T12:54:13;99867.59;;;33.10
70123;BMP280;57489;37.404;24.920;2023-08-24T12:59:14;99866.50;;;33.24
70123;BMP280;57489;37.404;24.920;2023-08-24T13:04:15;99859.84;;;33.41
70123;BMP280;57489;37.404;24.920;2023-08-24T13:09:15;99862.38;;;33.64
70123;BMP280;57489;37.404;24.920;2023-08-24T13:14:15;99856.88;;;33.52
70123;BMP280;57489;37.404;24.920;2023-08-24T13:19:16;99864.34;;;33.48
70123;BMP280;57489;37.404;24.920;2023-08-24T13:24:16;99859.91;;;33.54
70123;BMP280;57489;37.404;24.920;2023-08-24T13:29:17;99862.63;;;33.37
70123;BMP280;57489;37.404;24.920;2023-08-24T13:34:18;99864.00;;;33.62
70123;BMP280;57489;37.404;24.920;2023-08-24T13:39:18;99869.13;;;33.44
70123;BMP280;57489;37.404;24.920;2023-08-24T13:44:19;99855.03;;;33.16
70123;BMP280;57489;37.404;24.920;2023-08-24T13:49:20;99860.63;;;33.09
70123;BMP280;57489;37.404;24.920;2023-08-24T13:54:20;99853.66;;;33.08
70123;BMP280;57489;37.404;24.920;2023-08-24T13:59:21;99850.75;;;32.99
70123;BMP280;57489;37.404;24.920;2023-08-24T14:04:21;99844.66;;;32.95
70123;BMP280;57489;37.404;24.920;2023-08-24T14:09:22;99839.84;;;32.83
70123;BMP280;57489;37.404;24.920;2023-08-24T14:14:22;99835.69;;;33.43
70123;BMP280;57489;37.404;24.920;2023-08-24T14:19:23;99829.72;;;33.48
70123;BMP280;57489;37.404;24.920;2023-08-24T14:24:23;99829.06;;;33.60
70123;BMP280;57489;37.404;24.920;2023-08-24T14:29:24;99833.78;;;33.56
70123;BMP280;57489;37.404;24.920;2023-08-24T14:34:24;99826.63;;;33.50
70123;BMP280;57489;37.404;24.920;2023-08-24T14:39:25;99824.53;;;33.54
70123;BMP280;57489;37.404;24.920;2023-08-24T14:44:25;99826.50;;;33.53
70123;BMP280;57489;37.404;24.920;2023-08-24T14:49:26;99821.09;;;33.66
70123;BMP280;57489;37.404;24.920;2023-08-24T14:54:26;99824.72;;;33.63
70123;BMP280;57489;37.404;24.920;2023-08-24T14:59:27;99825.03;;;33.65
70123;BMP280;57489;37.404;24.920;2023-08-24T15:04:27;99822.00;;;33.63
70123;BMP280;57489;37.404;24.920;2023-08-24T15:09:28;99816.53;;;33.63
70123;BMP280;57489;37.404;24.920;2023-08-24T15:14:30;99822.16;;;33.56
70123;BMP280;57489;37.404;24.920;2023-08-24T15:19:31;99824.53;;;33.54
70123;BMP280;57489;37.404;24.920;2023-08-24T15:24:33;99825.06;;;33.32
70123;BMP280;57489;37.404;24.920;2023-08-24T15:29:33;99831.59;;;33.35
70123;BMP280;57489;37.404;24.920;2023-08-24T15:34:34;99831.47;;;33.10
70123;BMP280;57489;37.404;24.920;2023-08-24T15:39:38;99830.94;;;33.15
70123;BMP280;57489;37.404;24.920;2023-08-24T15:44:39;99829.34;;;33.17
70123;BMP280;57489;37.404;24.920;2023-08-24T15:49:39;99827.47;;;32.98
70123;BMP280;57489;37.404;24.920;2023-08-24T15:54:40;99827.72;;;32.87
70123;BMP280;57489;37.404;24.920;2023-08-24T15:59:40;99829.34;;;32.85
70123;BMP280;57489;37.404;24.920;2023-08-24T16:04:41;99828.09;;;32.69
70123;BMP280;57489;37.404;24.920;2023-08-24T16:09:41;99826.88;;;32.54
70123;BMP280;57489;37.404;24.920;2023-08-24T16:14:42;99822.28;;;32.51
70123;BMP280;57489;37.404;24.920;2023-08-24T16:19:46;99831.00;;;32.42
70123;BMP280;57489;37.404;24.920;2023-08-24T16:24:46;99833.44;;;32.37
70123;BMP280;57489;37.404;24.920;2023-08-24T16:29:46;99831.59;;;32.34
70123;BMP280;57489;37.404;24.920;2023-08-24T16:34:47;99834.44;;;32.27
70123;BMP280;57489;37.404;24.920;2023-08-24T16:39:48;99836.53;;;32.19
70123;BMP280;57489;37.404;24.920;2023-08-24T16:44:48;99838.59;;;32.11
70123;BMP280;57489;37.404;24.920;2023-08-24T16:49:48;99851.00;;;32.12
70123;BMP280;57489;37.404;24.920;2023-08-24T16:54:49;99863.44;;;32.10
70123;BMP280;57489;37.404;24.920;2023-08-24T16:59:49;99861.22;;;32.05
70123;BMP280;57489;37.404;24.920;2023-08-24T17:04:50;99857.41;;;32.02
70123;BMP280;57489;37.404;24.920;2023-08-24T17:09:50;99845.13;;;31.94
70123;BMP280;57489;37.404;24.920;2023-08-24T17:14:51;99868.16;;;31.86
70123;BMP280;57489;37.404;24.920;2023-08-24T17:19:51;99874.69;;;31.65
70123;BMP280;57489;37.404;24.920;2023-08-24T17:24:52;99881.25;;;31.68
70123;BMP280;57489;37.404;24.920;2023-08-24T17:29:52;99881.31;;;31.64
70123;BMP280;57489;37.404;24.920;2023-08-24T17:34:53;99887.63;;;31.58
70123;BMP280;57489;37.404;24.920;2023-08-24T17:39:53;99890.44;;;31.50
70123;BMP280;57489;37.404;24.920;2023-08-24T17:44:54;99899.78;;;31.49
70123;BMP280;57489;37.404;24.920;2023-08-24T17:49:54;99888.47;;;31.55
70123;BMP280;57489;37.404;24.920;2023-08-24T17:54:55;99892.84;;;31.45
70123;BMP280;57489;37.404;24.920;2023-08-24T17:59:55;99888.75;;;31.33
70123;BMP280;57489;37.404;24.920;2023-08-24T18:04:55;99891.34;;;29.66
70123;BMP280;57489;37.404;24.920;2023-08-24T18:09:56;99911.75;;;29.12
70123;BMP280;57489;37.404;24.920;2023-08-24T18:14:56;99914.19;;;28.71
70123;BMP280;57489;37.404;24.920;2023-08-24T18:19:57;99920.34;;;28.78
70123;BMP280;57489;37.404;24.920;2023-08-24T18:24:57;99915.03;;;28.46
70123;BMP280;57489;37.404;24.920;2023-08-24T18:29:58;99915.03;;;28.29
70123;BMP280;57489;37.404;24.920;2023-08-24T18:34:58;99929.28;;;28.15
70123;BMP280;57489;37.404;24.920;2023-08-24T18:39:59;99931.19;;;27.82
70123;BMP280;57489;37.404;24.920;2023-08-24T18:44:59;99943.47;;;27.62
70123;BMP280;57489;37.404;24.920;2023-08-24T18:50:00;99942.72;;;27.72
70123;BMP280;57489;37.404;24.920;2023-08-24T18:55:00;99938.91;;;28.48
70123;BMP280;57489;37.404;24.920;2023-08-24T19:00:01;99933.50;;;28.02
70123;BMP280;57489;37.404;24.920;2023-08-24T19:05:01;99934.28;;;27.91
70123;BMP280;57489;37.404;24.920;2023-08-24T19:10:02;99938.94;;;28.23
70123;BMP280;57489;37.404;24.920;2023-08-24T19:15:02;99947.78;;;28.52
70123;BMP280;57489;37.404;24.920;2023-08-24T19:20:03;99950.78;;;27.65
70123;BMP280;57489;37.404;24.920;2023-08-24T19:25:04;99955.13;;;27.98
70123;BMP280;57489;37.404;24.920;2023-08-24T19:30:05;99947.41;;;28.18
70123;BMP280;57489;37.404;24.920;2023-08-24T19:35:06;99948.91;;;27.83
70123;BMP280;57489;37.404;24.920;2023-08-24T19:40:07;99950.75;;;27.58
70123;BMP280;57489;37.404;24.920;2023-08-24T19:45:08;99953.53;;;27.79
70123;BMP280;57489;37.404;24.920;2023-08-24T19:50:08;99958.19;;;28.18
70123;BMP280;57489;37.404;24.920;2023-08-24T19:55:09;99961.53;;;27.58
70123;BMP280;57489;37.404;24.920;2023-08-24T20:00:10;99960.34;;;27.48
70123;BMP280;57489;37.404;24.920;2023-08-24T20:05:10;99961.16;;;27.70
70123;BMP280;57489;37.404;24.920;2023-08-24T20:10:11;99961.25;;;27.99
70123;BMP280;57489;37.404;24.920;2023-08-24T20:15:12;99952.41;;;28.30
70123;BMP280;57489;37.404;24.920;2023-08-24T20:20:14;99960.50;;;28.16
70123;BMP280;57489;37.404;24.920;2023-08-24T20:25:15;99960.47;;;27.84
70123;BMP280;57489;37.404;24.920;2023-08-24T20:30:16;99954.25;;;27.62
70123;BMP280;57489;37.404;24.920;2023-08-24T20:35:16;99955.44;;;27.75
70123;BMP280;57489;37.404;24.920;2023-08-24T20:40:17;99945.84;;;28.06
70123;BMP280;57489;37.404;24.920;2023-08-24T20:45:17;99943.19;;;28.35
70123;BMP280;57489;37.404;24.920;2023-08-24T20:50:18;99950.88;;;28.01
70123;BMP280;57489;37.404;24.920;2023-08-24T20:55:18;99945.78;;;27.74
70123;BMP280;57489;37.404;24.920;2023-08-24T21:00:19;99942.66;;;27.58
70123;BMP280;57489;37.404;24.920;2023-08-24T21:05:19;99942.28;;;27.70
70123;BMP280;57489;37.404;24.920;2023-08-24T21:10:20;99935.06;;;27.88
70123;BMP280;57489;37.404;24.920;2023-08-24T21:15:20;99940.47;;;28.03
70123;BMP280;57489;37.404;24.920;2023-08-24T21:20:21;99937.75;;;27.96
70123;BMP280;57489;37.404;24.920;2023-08-24T21:25:21;99941.16;;;27.71
70123;BMP280;57489;37.404;24.920;2023-08-24T21:30:22;99937.22;;;27.44
70123;BMP280;57489;37.404;24.920;2023-08-24T21:35:22;99923.41;;;27.56
70123;BMP280;57489;37.404;24.920;2023-08-24T21:40:23;99908.81;;;27.85
70123;BMP280;57489;37.404;24.920;2023-08-24T21:45:23;99913.47;;;27.96
70123;BMP280;57489;37.404;24.920;2023-08-24T21:50:24;99915.69;;;27.51
70123;BMP280;57489;37.404;24.920;2023-08-24T21:55:24;99904.84;;;27.36
70123;BMP280;57489;37.404;24.920;2023-08-24T22:00:25;99900.28;;;28.83
70123;BMP280;57489;37.404;24.920;2023-08-24T22:05:25;99892.34;;;29.28
70123;BMP280;57489;37.404;24.920;2023-08-24T22:10:26;99894.53;;;29.47
70123;BMP280;57489;37.404;24.920;2023-08-24T22:15:26;99892.31;;;29.38
70123;BMP280;57489;37.404;24.920;2023-08-24T22:20:27;99890.72;;;29.41
70123;BMP280;57489;37.404;24.920;2023-08-24T22:25:27;99890.03;;;29.30
70123;BMP280;57489;37.404;24.920;2023-08-24T22:30:28;99882.31;;;29.32
70123;BMP280;57489;37.404;24.920;2023-08-24T22:35:29;99877.19;;;29.45
70123;BMP280;57489;37.404;24.920;2023-08-24T22:40:29;99882.16;;;29.53
70123;BMP280;57489;37.404;24.920;2023-08-24T22:45:37;99876.81;;;29.46
70123;BMP280;57489;37.404;24.920;2023-08-24T22:50:38;99881.44;;;29.49
70123;BMP280;57489;37.404;24.920;2023-08-24T22:55:38;99868.69;;;29.46
70123;BMP280;57489;37.404;24.920;2023-08-24T23:00:39;99862.06;;;29.54
70123;BMP280;57489;37.404;24.920;2023-08-24T23:05:40;99862.75;;;29.65
70123;BMP280;57489;37.404;24.920;2023-08-24T23:10:40;99861.22;;;29.64
70123;BMP280;57489;37.404;24.920;2023-08-24T23:15:41;99864.34;;;29.59
70123;BMP280;57489;37.404;24.920;2023-08-24T23:20:42;99867.81;;;29.60
70123;BMP280;57489;37.404;24.920;2023-08-24T23:25:45;99865.81;;;29.71
70123;BMP280;57489;37.404;24.920;2023-08-24T23:30:46;99870.38;;;29.81
70123;BMP280;57489;37.404;24.920;2023-08-24T23:35:46;99861.88;;;29.79
70123;BMP280;57489;37.404;24.920;2023-08-24T23:40:46;99855.75;;;29.71
70123;BMP280;57489;37.404;24.920;2023-08-24T23:45:49;99851.13;;;29.68
70123;BMP280;57489;37.404;24.920;2023-08-24T23:50:49;99836.53;;;29.59
70123;BMP280;57489;37.404;24.920;2023-08-24T23:55:50;99838.38;;;29.69
